createdAt,value
2018-05-03T00:00:31.387Z,73.92
2018-05-03T00:02:58.916Z,73.47
2018-05-03T00:05:26.413Z,72.28
2018-05-03T00:07:53.936Z,71.77
2018-05-03T00:10:21.439Z,72.69
2018-05-03T00:12:48.955Z,72.68
2018-05-03T00:15:16.437Z,71.35
2018-05-03T00:17:44.049Z,71.87
2018-05-03T00:20:11.587Z,72.32
2018-05-03T00:22:39.112Z,72.38
2018-05-03T00:25:06.618Z,72.65
2018-05-03T00:27:34.130Z,73.21
2018-05-03T00:30:01.700Z,72.94
2018-05-03T00:32:29.254Z,73.37
2018-05-03T00:34:56.843Z,74.03
2018-05-03T00:37:24.378Z,73.84
2018-05-03T00:39:51.942Z,74.17
2018-05-03T00:42:19.489Z,74.84
2018-05-03T00:44:47.038Z,75.19
2018-05-03T00:47:14.666Z,75.67
2018-05-03T00:49:42.163Z,75.27
2018-05-03T00:52:09.722Z,74.96
2018-05-03T00:54:48.147Z,75.27
2018-05-03T00:57:15.670Z,75.27
2018-05-03T00:59:43.200Z,75.56
2018-05-03T01:02:10.744Z,75.62
2018-05-03T01:04:38.238Z,75.21
2018-05-03T01:07:05.781Z,75.34
2018-05-03T01:09:33.319Z,76.04
2018-05-03T01:12:00.826Z,75.71
2018-05-03T01:14:28.340Z,75.84
2018-05-03T01:16:55.893Z,75.35
2018-05-03T01:19:23.527Z,75.73
2018-05-03T01:21:51.042Z,76.02
2018-05-03T01:24:18.509Z,76.87
2018-05-03T01:26:46.755Z,76.73
2018-05-03T01:29:14.265Z,76.87
2018-05-03T01:31:41.777Z,77.67
2018-05-03T01:34:09.241Z,77.57
2018-05-03T01:36:37.634Z,77.57
2018-05-03T01:39:05.918Z,78.14
2018-05-03T01:41:33.470Z,78.60
2018-05-03T01:44:00.971Z,78.82
2018-05-03T01:46:28.469Z,79.02
2018-05-03T01:48:56.061Z,78.43
2018-05-03T01:51:23.559Z,78.32
2018-05-03T01:53:51.101Z,77.62
2018-05-03T01:56:18.659Z,77.95
2018-05-03T01:58:46.428Z,78.12
2018-05-03T02:01:13.907Z,77.93
2018-05-03T02:03:41.618Z,78.11
2018-05-03T02:06:09.199Z,78.52
2018-05-03T02:08:36.717Z,77.41
2018-05-03T02:11:04.198Z,78.31
2018-05-03T02:13:31.739Z,78.12
2018-05-03T02:15:59.329Z,78.34
2018-05-03T02:18:26.921Z,79.07
2018-05-03T02:20:54.437Z,78.25
2018-05-03T02:23:21.942Z,78.09
2018-05-03T02:25:49.534Z,78.26
2018-05-03T02:28:17.081Z,78.30
2018-05-03T02:30:44.587Z,79.23
2018-05-03T02:33:12.102Z,78.82
2018-05-03T02:35:39.624Z,78.02
2018-05-03T02:38:07.152Z,77.52
2018-05-03T02:40:34.690Z,78.08
2018-05-03T02:43:02.248Z,78.06
2018-05-03T02:45:29.760Z,77.94
2018-05-03T02:47:57.303Z,78.41
2018-05-03T02:50:24.921Z,78.57
2018-05-03T02:52:52.500Z,78.42
2018-05-03T02:55:20.056Z,78.74
2018-05-03T02:58:04.910Z,78.72
2018-05-03T03:00:49.975Z,79.61
2018-05-03T03:03:35.112Z,79.41
2018-05-03T03:06:14.379Z,79.81
2018-05-03T09:24:07.338Z,48.01
2018-05-03T09:58:31.494Z,48.03
2018-05-03T10:00:59.417Z,45.63
2018-05-03T10:03:26.878Z,45.38
2018-05-03T10:05:54.362Z,45.83
2018-05-03T10:08:21.829Z,47.52
2018-05-03T10:10:49.318Z,48.04
2018-05-03T10:13:16.833Z,47.50
2018-05-03T10:15:44.281Z,46.33
2018-05-03T10:18:11.746Z,46.74
2018-05-03T10:20:39.226Z,45.59
2018-05-03T10:23:06.687Z,47.41
2018-05-03T10:25:34.177Z,43.57
2018-05-03T10:28:01.634Z,46.34
2018-05-03T10:30:29.130Z,45.12
2018-05-03T10:32:56.593Z,45.48
2018-05-03T10:35:24.086Z,45.97
2018-05-03T10:37:51.569Z,46.88
2018-05-03T10:40:19.034Z,48.09
2018-05-03T10:42:46.509Z,46.97
2018-05-03T10:45:13.961Z,46.87
2018-05-03T10:47:41.442Z,47.58
2018-05-03T10:50:08.910Z,48.72
2018-05-03T10:52:36.391Z,46.47
2018-05-03T10:55:03.874Z,46.84
2018-05-03T10:57:31.482Z,45.88
2018-05-03T10:59:58.850Z,45.37
2018-05-03T11:02:26.335Z,46.01
2018-05-03T11:04:53.802Z,45.56
2018-05-03T11:07:21.279Z,46.98
2018-05-03T11:09:48.746Z,43.97
2018-05-03T11:12:26.661Z,46.36
2018-05-03T11:14:54.142Z,47.07
2018-05-03T11:17:21.686Z,44.28
2018-05-03T11:19:49.173Z,44.42
2018-05-03T11:22:16.701Z,45.25
2018-05-03T11:24:44.238Z,42.83
2018-05-03T11:27:11.779Z,43.60
2018-05-03T11:29:39.319Z,43.69
2018-05-03T11:32:06.833Z,44.25
2018-05-03T11:34:34.321Z,41.34
2018-05-03T11:37:01.929Z,38.89
2018-05-03T11:39:29.488Z,39.78
2018-05-03T11:41:57.009Z,42.63
2018-05-03T11:44:24.533Z,43.42
2018-05-03T11:46:52.090Z,43.19
2018-05-03T11:49:19.614Z,42.71
2018-05-03T11:51:47.113Z,43.43
2018-05-03T11:54:14.628Z,43.61
2018-05-03T11:56:42.186Z,42.47
2018-05-03T11:59:09.777Z,40.74
2018-05-03T12:01:37.787Z,41.68
2018-05-03T12:04:05.278Z,39.93
2018-05-03T12:06:32.751Z,41.55
2018-05-03T12:09:00.277Z,41.12
2018-05-03T12:11:27.790Z,42.27
2018-05-03T12:13:55.295Z,41.10
2018-05-03T12:16:22.778Z,41.18
2018-05-03T12:18:50.274Z,40.36
2018-05-03T12:21:17.759Z,41.53
2018-05-03T12:23:45.265Z,40.63
2018-05-03T12:26:12.754Z,40.49
2018-05-03T12:28:40.281Z,42.15
2018-05-03T12:31:07.808Z,37.00
2018-05-03T12:33:35.326Z,39.79
2018-05-03T12:36:02.832Z,38.36
2018-05-03T12:38:30.365Z,35.64
2018-05-03T12:40:57.893Z,37.59
2018-05-03T12:43:25.433Z,37.62
2018-05-03T12:45:52.933Z,36.75
2018-05-03T12:48:20.498Z,36.87
2018-05-03T12:50:47.995Z,36.75
2018-05-03T12:53:15.504Z,33.59
2018-05-03T12:55:43.217Z,33.07
2018-05-03T12:58:10.758Z,32.26
2018-05-03T13:00:38.285Z,31.44
2018-05-03T13:03:05.805Z,33.45
2018-05-03T13:05:33.333Z,31.21
2018-05-03T13:08:00.846Z,32.37
2018-05-03T13:10:28.334Z,33.81
2018-05-03T13:12:55.874Z,31.54
2018-05-03T13:15:23.342Z,31.95
2018-05-03T13:17:50.859Z,32.40
2018-05-03T13:20:18.354Z,31.98
2018-05-03T13:22:45.865Z,30.78
2018-05-03T13:25:13.378Z,31.04
2018-05-03T13:27:40.890Z,30.22
2018-05-03T13:30:08.418Z,27.64
2018-05-03T13:32:35.934Z,28.95
2018-05-03T13:35:03.450Z,26.56
2018-05-03T13:37:31.024Z,26.95
2018-05-03T13:39:58.528Z,28.36
2018-05-03T13:42:26.041Z,25.78
2018-05-03T13:44:53.583Z,25.32
2018-05-03T13:47:21.201Z,25.01
2018-05-03T13:49:48.646Z,25.74
2018-05-03T13:52:16.368Z,26.46
2018-05-03T13:54:43.910Z,28.30
2018-05-03T13:57:11.430Z,29.51
2018-05-03T13:59:38.988Z,26.79
2018-05-03T14:02:06.526Z,26.91
2018-05-03T14:04:34.042Z,26.05
2018-05-03T14:07:01.642Z,26.95
2018-05-03T14:09:29.069Z,26.27
2018-05-03T14:11:56.555Z,27.93
2018-05-03T14:14:24.104Z,28.73
2018-05-03T14:16:51.624Z,28.57
2018-05-03T14:19:19.232Z,27.91
2018-05-03T14:21:46.765Z,28.00
2018-05-03T14:24:14.310Z,24.56
2018-05-03T14:26:41.804Z,24.32
2018-05-03T14:29:09.434Z,24.03
2018-05-03T14:31:36.928Z,24.54
2018-05-03T14:34:04.425Z,23.82
2018-05-03T14:36:31.918Z,24.27
2018-05-03T14:38:59.905Z,25.48
2018-05-03T14:41:27.400Z,25.12
2018-05-03T14:43:54.961Z,29.07
2018-05-03T14:46:22.498Z,28.60
2018-05-03T14:48:50.033Z,28.12
2018-05-03T14:51:17.585Z,29.22
2018-05-03T14:53:45.106Z,28.47
2018-05-03T14:56:12.649Z,28.45
2018-05-03T14:58:40.189Z,27.62
2018-05-03T15:01:07.728Z,27.26
2018-05-03T15:03:35.313Z,26.16
2018-05-03T15:06:02.866Z,25.42
2018-05-03T15:08:30.478Z,24.54
2018-05-03T15:10:58.055Z,26.49
2018-05-03T15:13:25.562Z,26.41
2018-05-03T15:15:53.064Z,25.11
2018-05-03T15:18:20.700Z,28.92
2018-05-03T15:20:48.146Z,27.44
2018-05-03T15:23:15.668Z,28.40
2018-05-03T15:25:43.161Z,29.17
2018-05-03T15:28:10.666Z,25.74
2018-05-03T15:30:38.221Z,24.58
2018-05-03T15:33:05.759Z,25.33
2018-05-03T15:35:33.243Z,25.74
2018-05-03T15:38:00.765Z,23.37
2018-05-03T15:40:28.264Z,24.54
2018-05-03T15:42:55.738Z,24.30
2018-05-03T15:45:23.269Z,24.78
2018-05-03T15:47:50.775Z,23.95
2018-05-03T15:50:18.402Z,24.52
2018-05-03T15:52:45.839Z,27.00
2018-05-03T15:55:13.338Z,25.73
2018-05-03T15:57:40.902Z,25.95
2018-05-03T16:00:08.426Z,25.77
2018-05-03T16:02:35.931Z,25.04
2018-05-03T16:05:03.460Z,26.32
2018-05-03T16:07:31.030Z,23.81
2018-05-03T16:09:58.499Z,26.45
2018-05-03T16:12:26.014Z,24.65
2018-05-03T16:14:53.711Z,24.98
2018-05-03T16:17:21.245Z,26.34
2018-05-03T16:19:48.771Z,25.65
2018-05-03T16:22:16.302Z,23.44
2018-05-03T16:24:43.826Z,23.58
2018-05-03T16:27:11.361Z,24.80
2018-05-03T16:29:38.872Z,25.40
2018-05-03T16:32:06.394Z,25.36
2018-05-03T16:34:33.899Z,26.52
2018-05-03T16:37:01.436Z,25.73
2018-05-03T16:39:29.682Z,25.02
2018-05-03T16:41:57.215Z,25.70
2018-05-03T16:44:24.743Z,25.47
2018-05-03T16:46:52.334Z,24.02
2018-05-03T16:49:19.777Z,27.04
2018-05-03T16:51:47.595Z,28.96
2018-05-03T16:54:15.112Z,27.97
2018-05-03T16:56:42.704Z,28.60
2018-05-03T16:59:10.187Z,29.57
2018-05-03T17:01:37.763Z,31.71
2018-05-03T17:04:05.274Z,32.84
2018-05-03T17:06:32.949Z,33.01
2018-05-03T17:09:00.460Z,33.60
2018-05-03T17:11:27.952Z,33.51
2018-05-03T17:13:55.418Z,34.13
2018-05-03T17:16:22.931Z,34.81
2018-05-03T17:18:50.408Z,34.40
2018-05-03T17:21:17.918Z,34.92
2018-05-03T17:23:45.393Z,35.93
2018-05-03T17:26:12.978Z,35.62
2018-05-03T17:28:43.795Z,36.67
2018-05-03T17:31:11.296Z,36.76
2018-05-03T17:33:40.012Z,36.40
2018-05-03T17:36:07.461Z,36.00
2018-05-03T17:38:34.937Z,36.50
2018-05-03T17:41:02.489Z,36.21
2018-05-03T17:43:30.006Z,36.82
2018-05-03T17:45:57.482Z,37.60
2018-05-03T17:48:25.009Z,37.46
2018-05-03T17:50:52.533Z,37.11
2018-05-03T17:53:20.059Z,37.61
2018-05-03T17:55:47.556Z,38.35
2018-05-03T17:58:15.050Z,39.33
2018-05-03T18:00:42.954Z,39.62
2018-05-03T18:03:10.596Z,40.66
2018-05-03T18:05:38.345Z,40.72
2018-05-03T18:08:05.926Z,40.68
2018-05-03T18:10:33.470Z,40.21
2018-05-03T18:13:01.002Z,39.86
2018-05-03T18:15:28.542Z,39.22
2018-05-03T18:17:56.139Z,41.45
2018-05-03T18:20:23.742Z,42.45
2018-05-03T18:22:51.346Z,42.39
2018-05-03T18:25:18.855Z,42.81
2018-05-03T18:27:46.446Z,43.00
2018-05-03T18:30:13.966Z,43.42
2018-05-03T18:32:41.582Z,43.97
2018-05-03T18:35:09.309Z,44.02
2018-05-03T18:37:36.905Z,44.58
2018-05-03T18:40:04.449Z,44.71
2018-05-03T18:42:31.991Z,44.96
2018-05-03T18:44:59.593Z,45.33
2018-05-03T18:47:27.154Z,45.54
2018-05-03T18:49:54.799Z,45.60
2018-05-03T18:52:22.303Z,46.00
2018-05-03T18:54:49.863Z,46.44
2018-05-03T18:57:17.361Z,47.00
2018-05-03T18:59:44.980Z,47.05
2018-05-03T19:02:12.469Z,47.82
2018-05-03T19:07:11.769Z,48.46
2018-05-03T19:09:39.325Z,49.31
2018-05-03T19:12:06.901Z,49.11
2018-05-03T19:14:34.510Z,49.18
2018-05-03T19:17:01.925Z,49.09
2018-05-03T19:19:29.417Z,49.90
2018-05-03T19:21:57.262Z,50.91
2018-05-03T19:24:24.773Z,50.66
2018-05-03T19:26:52.338Z,50.30
2018-05-03T19:29:19.905Z,50.32
2018-05-03T19:31:47.947Z,50.93
2018-05-03T19:34:15.485Z,51.00
2018-05-03T19:36:42.962Z,51.36
2018-05-03T19:39:10.687Z,52.36
2018-05-03T19:41:38.574Z,51.84
2018-05-03T19:44:06.117Z,52.25
2018-05-03T19:46:33.615Z,52.56
2018-05-03T19:49:01.119Z,52.62
2018-05-03T19:51:28.621Z,53.20
2018-05-03T19:53:56.191Z,53.21
2018-05-03T19:56:23.694Z,53.65
2018-05-03T19:58:51.254Z,54.14
2018-05-03T20:01:25.934Z,54.75
2018-05-03T20:03:53.470Z,55.24
2018-05-03T20:06:21.035Z,55.02
2018-05-03T20:08:48.568Z,55.27
2018-05-03T20:11:16.135Z,56.01
2018-05-03T20:13:43.669Z,55.33
2018-05-03T20:16:11.498Z,56.00
2018-05-03T20:18:39.095Z,57.33
2018-05-03T20:21:06.616Z,57.50
2018-05-03T20:23:34.118Z,58.53
2018-05-03T20:26:01.618Z,58.92
2018-05-03T20:28:29.086Z,58.86
2018-05-03T20:30:56.922Z,58.71
2018-05-03T20:33:24.463Z,58.64
2018-05-03T20:35:52.008Z,59.18
2018-05-03T20:38:19.490Z,59.90
2018-05-03T20:40:47.028Z,60.38
2018-05-03T20:43:14.576Z,61.33
2018-05-03T20:45:42.107Z,61.39
2018-05-03T20:48:09.612Z,63.01
2018-05-03T20:50:37.112Z,62.58
2018-05-03T20:53:04.634Z,62.83
2018-05-03T20:55:32.412Z,63.40
2018-05-03T20:57:59.953Z,64.46
2018-05-03T21:00:27.477Z,65.38
2018-05-03T21:02:55.007Z,66.00
2018-05-03T21:05:22.514Z,66.76
2018-05-03T21:07:50.025Z,65.79
2018-05-03T21:10:17.510Z,65.39
2018-05-03T21:12:45.111Z,63.98
2018-05-03T21:15:12.851Z,63.86
2018-05-03T21:17:40.345Z,64.61
2018-05-03T21:20:07.844Z,65.53
2018-05-03T21:22:35.356Z,65.07
2018-05-03T21:25:02.867Z,66.07
2018-05-03T21:27:30.384Z,66.39
2018-05-03T21:29:57.903Z,66.67
2018-05-03T21:32:25.386Z,68.04
2018-05-03T21:34:52.886Z,69.14
2018-05-03T21:37:20.356Z,67.48
2018-05-03T21:39:47.884Z,68.49
2018-05-03T21:42:15.365Z,68.32
2018-05-03T21:44:43.109Z,68.64
2018-05-03T21:47:10.673Z,68.65
2018-05-03T21:49:38.171Z,69.18
2018-05-03T21:52:05.706Z,68.82
2018-05-03T21:54:33.235Z,69.16
2018-05-03T21:57:00.775Z,68.84
2018-05-03T21:59:28.257Z,69.44
2018-05-03T22:01:55.985Z,69.87
2018-05-03T22:04:23.474Z,72.37
2018-05-03T22:06:50.990Z,71.40
2018-05-03T22:09:18.485Z,70.93
2018-05-03T22:11:46.205Z,71.19
2018-05-03T22:14:13.894Z,71.78
2018-05-03T22:16:41.409Z,72.16
2018-05-03T22:19:09.249Z,72.09
2018-05-03T22:21:36.747Z,72.50
2018-05-03T22:24:04.234Z,72.20
2018-05-03T22:26:31.950Z,71.93
2018-05-03T22:28:59.531Z,71.60
2018-05-03T22:31:27.058Z,72.07
2018-05-03T22:33:54.587Z,72.75
2018-05-03T22:36:22.162Z,73.21
2018-05-03T22:38:49.634Z,73.70
2018-05-03T22:41:17.125Z,74.52
2018-05-03T22:43:44.622Z,75.55
2018-05-03T22:46:12.349Z,75.63
2018-05-03T22:48:40.059Z,74.23
2018-05-03T22:51:07.605Z,74.13
2018-05-03T22:53:35.120Z,74.46
2018-05-03T22:56:02.612Z,74.44
2018-05-03T22:58:30.081Z,74.25
2018-05-03T23:00:57.578Z,74.18
2018-05-03T23:03:25.078Z,73.84
2018-05-03T23:05:52.568Z,75.20
2018-05-03T23:08:20.316Z,74.53
2018-05-03T23:10:48.054Z,74.76
2018-05-03T23:13:15.587Z,75.38
2018-05-03T23:15:43.108Z,75.14
2018-05-03T23:18:10.673Z,74.62
2018-05-03T23:20:38.202Z,74.23
2018-05-03T23:23:05.743Z,74.01
2018-05-03T23:25:33.231Z,74.03
2018-05-03T23:28:00.743Z,74.80
2018-05-03T23:30:28.269Z,74.65
2018-05-03T23:32:55.794Z,74.89
2018-05-03T23:35:23.290Z,74.67
2018-05-03T23:37:50.802Z,74.93
2018-05-03T23:40:18.313Z,75.12
2018-05-03T23:42:46.138Z,74.94
2018-05-03T23:45:13.643Z,75.31
2018-05-03T23:47:41.530Z,75.43
2018-05-03T23:50:09.056Z,75.32
2018-05-03T23:52:36.634Z,75.56
2018-05-03T23:55:04.184Z,75.61
2018-05-03T23:57:31.703Z,75.59
2018-05-03T23:59:59.219Z,75.36
